East Blacksea — T2ZH3 — position and weather

sailwx.info

Track history (hours):
 
Tides and Currents Weather Stations Pressure Air Temp Water Temp Dewpoint Dewpoint Depression Visibility Wind Speed Wind Dir Waves Ship Positions

East Blacksea

Last reported at 2014-Aug-19 12:12 UTC. Time now 2014-Aug-28 07:24 UTC.
Position N 44°21' E 034°11'.
Warning: this ship's position is 8 days out of date.

Length 69 m; draft 4 m.

Type: Cargo ship. MMSI: 572341210.

Date/timePositionNaut miles runAvg speedWind from/ knotsBaromVisibWave heightAir tempDewpointWater temp
2014-Aug-19 12:12N 44°21' E 034°11'6 8.7
2014-Aug-19 11:33N 44°24' E 034°17'9 8.7
2014-Aug-19 10:33N 44°30' E 034°26'17 8.5
2014-Aug-19 08:33N 44°40' E 034°44'14 0.5
2014-Aug-18 06:21N 44°47' E 035°02'118 6.6
2014-Aug-17 12:18N 44°43' E 037°48'1 0.7
2014-Aug-17 11:18N 44°43' E 037°48'0 0.0
2014-Aug-17 09:24N 44°43' E 037°48'0 0.0
2014-Aug-17 08:15N 44°43' E 037°48'0 0.0
2014-Aug-17 07:27N 44°43' E 037°48'0 0.0
2014-Aug-17 04:33N 44°43' E 037°48'0 0.0
2014-Aug-17 03:33N 44°43' E 037°48'0 0.0
2014-Aug-17 02:33N 44°43' E 037°48'0 0.0
2014-Aug-17 01:30N 44°43' E 037°48'0 0.0
2014-Aug-17 00:33N 44°43' E 037°48'0 0.0
2014-Aug-16 23:33N 44°43' E 037°48'0 0.0
2014-Aug-16 22:33N 44°43' E 037°48'0 0.0
2014-Aug-16 21:33N 44°43' E 037°48'0 0.0
2014-Aug-16 20:33N 44°43' E 037°48'0 0.0
2014-Aug-16 19:33N 44°43' E 037°48'0 0.0
2014-Aug-16 18:33N 44°43' E 037°48'0 0.0
2014-Aug-16 17:33N 44°43' E 037°48'0 0.0
2014-Aug-16 16:33N 44°43' E 037°48'0 0.0
2014-Aug-16 15:33N 44°43' E 037°48'0 0.0
2014-Aug-16 14:33N 44°43' E 037°48'0 0.0
2014-Aug-16 13:33N 44°43' E 037°48'0 0.0
2014-Aug-16 12:12N 44°43' E 037°48'0 0.0
2014-Aug-16 11:33N 44°43' E 037°48'0 0.0
2014-Aug-16 10:30N 44°43' E 037°48'0 0.0
2014-Aug-16 09:30N 44°43' E 037°48'0 0.0
2014-Aug-16 08:24N 44°43' E 037°48'0 0.0
2014-Aug-16 07:33N 44°43' E 037°48'0 0.0
2014-Aug-16 06:33N 44°43' E 037°48'0 0.0
2014-Aug-16 05:33N 44°43' E 037°48'0 0.0
2014-Aug-16 04:33N 44°43' E 037°48'0 0.0
2014-Aug-16 03:08N 44°43' E 037°48'0 0.0
2014-Aug-16 02:17N 44°43' E 037°48'0 0.0
2014-Aug-16 01:32N 44°43' E 037°48'0 0.0
2014-Aug-16 00:28N 44°43' E 037°48'0 0.0
2014-Aug-15 23:29N 44°43' E 037°48'0 0.0
2014-Aug-15 22:33N 44°43' E 037°48'0 0.0
2014-Aug-15 21:33N 44°43' E 037°48'0 0.0
2014-Aug-15 20:33N 44°43' E 037°48'0 0.0
2014-Aug-15 19:33N 44°43' E 037°48'0 0.0
2014-Aug-15 18:33N 44°43' E 037°48'0 0.0
2014-Aug-15 17:27N 44°43' E 037°48'0 0.0
2014-Aug-15 16:25N 44°43' E 037°48'0 0.0
2014-Aug-15 15:31N 44°43' E 037°48'0 0.0
2014-Aug-15 14:32N 44°43' E 037°48'0 0.0
2014-Aug-15 13:32N 44°43' E 037°48'0 0.0
2014-Aug-15 12:08N 44°43' E 037°48'0 0.0
2014-Aug-15 11:33N 44°43' E 037°48'0 0.3
2014-Aug-15 10:33N 44°43' E 037°48'5 5.5
2014-Aug-15 09:33N 44°39' E 037°53'1 0.8
2014-Aug-15 08:16N 44°39' E 037°54'0 0.1
2014-Aug-15 07:31N 44°39' E 037°54'0 0.0
2014-Aug-14 12:22N 44°39' E 037°54'0 0.0
2014-Aug-14 11:28N 44°39' E 037°54'0 0.0
2014-Aug-14 10:22N 44°39' E 037°54'0 0.0
2014-Aug-14 09:28N 44°39' E 037°54'0 0.0
2014-Aug-14 08:31N 44°39' E 037°54'  
Track history (hours):
 
Tides and Currents Weather Stations Pressure Air Temp Water Temp Dewpoint Dewpoint Depression Visibility Wind Speed Wind Dir Waves Ship Positions

East Blacksea

Last reported at 2014-Aug-19 12:12 UTC. Time now 2014-Aug-28 07:24 UTC.
Position N 44°21' E 034°11'.
Warning: this ship's position is 8 days out of date.

Length 69 m; draft 4 m.

Type: Cargo ship. MMSI: 572341210.

Date/timePositionNaut miles runAvg speedWind from/ knotsBaromVisibWave heightAir tempDewpointWater temp
2014-Aug-19 12:12N 44°21' E 034°11'6 8.7
2014-Aug-19 11:33N 44°24' E 034°17'9 8.7
2014-Aug-19 10:33N 44°30' E 034°26'17 8.5
2014-Aug-19 08:33N 44°40' E 034°44'14 0.5
2014-Aug-18 06:21N 44°47' E 035°02'118 6.6
2014-Aug-17 12:18N 44°43' E 037°48'1 0.7
2014-Aug-17 11:18N 44°43' E 037°48'0 0.0
2014-Aug-17 09:24N 44°43' E 037°48'0 0.0
2014-Aug-17 08:15N 44°43' E 037°48'0 0.0
2014-Aug-17 07:27N 44°43' E 037°48'0 0.0
2014-Aug-17 04:33N 44°43' E 037°48'0 0.0
2014-Aug-17 03:33N 44°43' E 037°48'0 0.0
2014-Aug-17 02:33N 44°43' E 037°48'0 0.0
2014-Aug-17 01:30N 44°43' E 037°48'0 0.0
2014-Aug-17 00:33N 44°43' E 037°48'0 0.0
2014-Aug-16 23:33N 44°43' E 037°48'0 0.0
2014-Aug-16 22:33N 44°43' E 037°48'0 0.0
2014-Aug-16 21:33N 44°43' E 037°48'0 0.0
2014-Aug-16 20:33N 44°43' E 037°48'0 0.0
2014-Aug-16 19:33N 44°43' E 037°48'0 0.0
2014-Aug-16 18:33N 44°43' E 037°48'0 0.0
2014-Aug-16 17:33N 44°43' E 037°48'0 0.0
2014-Aug-16 16:33N 44°43' E 037°48'0 0.0
2014-Aug-16 15:33N 44°43' E 037°48'0 0.0
2014-Aug-16 14:33N 44°43' E 037°48'0 0.0
2014-Aug-16 13:33N 44°43' E 037°48'0 0.0
2014-Aug-16 12:12N 44°43' E 037°48'0 0.0
2014-Aug-16 11:33N 44°43' E 037°48'0 0.0
2014-Aug-16 10:30N 44°43' E 037°48'0 0.0
2014-Aug-16 09:30N 44°43' E 037°48'0 0.0
2014-Aug-16 08:24N 44°43' E 037°48'0 0.0
2014-Aug-16 07:33N 44°43' E 037°48'0 0.0
2014-Aug-16 06:33N 44°43' E 037°48'0 0.0
2014-Aug-16 05:33N 44°43' E 037°48'0 0.0
2014-Aug-16 04:33N 44°43' E 037°48'0 0.0
2014-Aug-16 03:08N 44°43' E 037°48'0 0.0
2014-Aug-16 02:17N 44°43' E 037°48'0 0.0
2014-Aug-16 01:32N 44°43' E 037°48'0 0.0
2014-Aug-16 00:28N 44°43' E 037°48'0 0.0
2014-Aug-15 23:29N 44°43' E 037°48'0 0.0
2014-Aug-15 22:33N 44°43' E 037°48'0 0.0
2014-Aug-15 21:33N 44°43' E 037°48'0 0.0
2014-Aug-15 20:33N 44°43' E 037°48'0 0.0
2014-Aug-15 19:33N 44°43' E 037°48'0 0.0
2014-Aug-15 18:33N 44°43' E 037°48'0 0.0
2014-Aug-15 17:27N 44°43' E 037°48'0 0.0
2014-Aug-15 16:25N 44°43' E 037°48'0 0.0
2014-Aug-15 15:31N 44°43' E 037°48'0 0.0
2014-Aug-15 14:32N 44°43' E 037°48'0 0.0
2014-Aug-15 13:32N 44°43' E 037°48'0 0.0
2014-Aug-15 12:08N 44°43' E 037°48'0 0.0
2014-Aug-15 11:33N 44°43' E 037°48'0 0.3
2014-Aug-15 10:33N 44°43' E 037°48'5 5.5
2014-Aug-15 09:33N 44°39' E 037°53'1 0.8
2014-Aug-15 08:16N 44°39' E 037°54'0 0.1
2014-Aug-15 07:31N 44°39' E 037°54'0 0.0
2014-Aug-14 12:22N 44°39' E 037°54'0 0.0
2014-Aug-14 11:28N 44°39' E 037°54'0 0.0
2014-Aug-14 10:22N 44°39' E 037°54'0 0.0
2014-Aug-14 09:28N 44°39' E 037°54'0 0.0
2014-Aug-14 08:31N 44°39' E 037°54'  

Dump ship's entire track history